Thunder radar more information blitzortung!


Radar de pluja more information rain snow radar


Visita la nostra xarxa de llocs de meteo:

Template documentation
and downloads

And another site



No particular awareness of the weather is required.    There are no Weather-warnings

Pagina Historial Weather Underground text

Diari Resum January 12, 2018 Unitats:  Tant    Imperial   Mètric
« Previous Dia
SegĂźent Dia »
Diari Setmana Mensual Anual Personalitzada
  Maxima: Minima: Media:
Temperatura: TemperatureC °F /  -17.8 °C 1.0 °F /  -17.2 °C 5 °F /  -15 °C
Punt de rosada: DewpointC °F /  -17.8 °C -3.3 °F /  -19.6 °C -1.6 °F /  -18.7 °C
Humitat: Humidity % 51 % 62 %
Wind Speed: WindSpeedKMH mph /  0 km/h - 2.4 mph /  3.9 km/h
RĂ fegues de vent: WindSpeedGustKMH mph /  0 km/h - -
Vent:- - SSE
Pression baro: PressurehPa in /  0 hPa 1017.8 in /  34462.7 hPa -
Precipitacions: 0.0 in /  0 mm    
Historical Graphs
 
 
Dades de taula per January 12, 2018
Temps Temperatura Punt de rosada Pression baro Vent Wind Speed RĂ fegues de vent Humitat Rainfall Rate (Hourly)
TemperatureC °F /  -17.8 °C DewpointC °F /  -17.8 °C PressurehPa in /  0 hPa Calm     Humidity % HourlyPrecipMM in /  0 mm
00:00 2.5 °F /  -16.4 °C -3.0 °F /  -19.4 °C 1019.9 in /  34533.8 hPa West 3.2 mph /  5.1 km/h 3.2 mph /  5.1 km/h 67 % 0.0 in /  0 mm
00:03 5.5 °F /  -14.7 °C -1.9 °F /  -18.8 °C 1017.8 in /  34462.7 hPa WNW 3.7 mph /  6 km/h 3.7 mph /  6 km/h 59 % 0.0 in /  0 mm
00:04 5.5 °F /  -14.7 °C -1.9 °F /  -18.8 °C 1017.8 in /  34462.7 hPa WNW 3.7 mph /  6 km/h 3.7 mph /  6 km/h 59 % 0.0 in /  0 mm
00:10 2.6 °F /  -16.3 °C -2.9 °F /  -19.4 °C 1019.9 in /  34533.8 hPa Calm   3.2 mph /  5.1 km/h 67 % 0.0 in /  0 mm
00:20 2.5 °F /  -16.4 °C -2.8 °F /  -19.3 °C 1019.9 in /  34533.8 hPa NNW 1.6 mph /  2.6 km/h 3.2 mph /  5.1 km/h 68 % 0.0 in /  0 mm
00:30 2.6 °F /  -16.3 °C -2.9 °F /  -19.4 °C 1019.9 in /  34533.8 hPa NNW 3.2 mph /  5.1 km/h 4.8 mph /  7.7 km/h 67 % 0.0 in /  0 mm
00:40 2.5 °F /  -16.4 °C -2.8 °F /  -19.3 °C 1019.9 in /  34533.8 hPa Calm   3.2 mph /  5.1 km/h 68 % 0.0 in /  0 mm
00:50 2.3 °F /  -16.5 °C -3.0 °F /  -19.4 °C 1019.9 in /  34533.8 hPa Calm   3.2 mph /  5.1 km/h 68 % 0.0 in /  0 mm
01:00 2.2 °F /  -16.6 °C -3.3 °F /  -19.6 °C 1019.9 in /  34533.8 hPa ENE 1.6 mph /  2.6 km/h 3.2 mph /  5.1 km/h 67 % 0.0 in /  0 mm
01:10 2.1 °F /  -16.6 °C -3.2 °F /  -19.6 °C 1019.9 in /  34533.8 hPa Calm   3.2 mph /  5.1 km/h 68 % 0.0 in /  0 mm
01:20 2.1 °F /  -16.6 °C -3.2 °F /  -19.6 °C 1019.9 in /  34533.8 hPa Calm   3.2 mph /  5.1 km/h 68 % 0.0 in /  0 mm
01:30 2.0 °F /  -16.7 °C -3.3 °F /  -19.6 °C 1019.9 in /  34533.8 hPa NW 1.6 mph /  2.6 km/h 3.2 mph /  5.1 km/h 68 % 0.0 in /  0 mm
01:40 2.2 °F /  -16.6 °C -2.9 °F /  -19.4 °C 1019.9 in /  34533.8 hPa NNW 1.6 mph /  2.6 km/h 3.2 mph /  5.1 km/h 69 % 0.0 in /  0 mm
01:50 2.1 °F /  -16.6 °C -3.2 °F /  -19.6 °C 1019.9 in /  34533.8 hPa Calm   3.2 mph /  5.1 km/h 68 % 0.0 in /  0 mm
02:00 2.2 °F /  -16.6 °C -2.9 °F /  -19.4 °C 1019.9 in /  34533.8 hPa North 3.2 mph /  5.1 km/h 4.8 mph /  7.7 km/h 69 % 0.0 in /  0 mm
02:10 2.0 °F /  -16.7 °C -3.3 °F /  -19.6 °C 1019.9 in /  34533.8 hPa North 1.6 mph /  2.6 km/h 3.2 mph /  5.1 km/h 68 % 0.0 in /  0 mm
02:20 1.9 °F /  -16.7 °C -3.2 °F /  -19.6 °C 1019.9 in /  34533.8 hPa Calm   3.2 mph /  5.1 km/h 69 % 0.0 in /  0 mm
02:30 1.8 °F /  -16.8 °C -3.3 °F /  -19.6 °C 1019.9 in /  34533.8 hPa Calm   1.6 mph /  2.6 km/h 69 % 0.0 in /  0 mm
02:40 2.0 °F /  -16.7 °C -3.1 °F /  -19.5 °C 1020.9 in /  34567.7 hPa NNE 4.8 mph /  7.7 km/h 4.8 mph /  7.7 km/h 69 % 0.0 in /  0 mm
02:50 2.5 °F /  -16.4 °C -2.6 °F /  -19.2 °C 1019.9 in /  34533.8 hPa NNE 3.2 mph /  5.1 km/h 6.4 mph /  10.3 km/h 69 % 0.0 in /  0 mm
03:00 2.9 °F /  -16.2 °C -2.2 °F /  -19 °C 1019.9 in /  34533.8 hPa NNW 3.2 mph /  5.1 km/h 6.4 mph /  10.3 km/h 69 % 0.0 in /  0 mm
03:20 3.4 °F /  -15.9 °C -1.9 °F /  -18.8 °C 1020.9 in /  34567.7 hPa Calm   4.8 mph /  7.7 km/h 68 % 0.0 in /  0 mm
03:30 3.7 °F /  -15.7 °C -1.9 °F /  -18.8 °C 1020.9 in /  34567.7 hPa West 1.6 mph /  2.6 km/h 3.2 mph /  5.1 km/h 67 % 0.0 in /  0 mm
03:40 4.2 °F /  -15.4 °C -1.4 °F /  -18.6 °C 1020.9 in /  34567.7 hPa Calm   3.2 mph /  5.1 km/h 67 % 0.0 in /  0 mm
03:50 4.4 °F /  -15.3 °C -1.4 °F /  -18.6 °C 1021.9 in /  34601.5 hPa NNW 1.6 mph /  2.6 km/h 4.8 mph /  7.7 km/h 66 % 0.0 in /  0 mm
04:00 4.4 °F /  -15.3 °C -1.6 °F /  -18.7 °C 1021.9 in /  34601.5 hPa NNE 4.8 mph /  7.7 km/h 6.4 mph /  10.3 km/h 65 % 0.0 in /  0 mm
04:10 4.7 °F /  -15.2 °C -1.3 °F /  -18.5 °C 1021.9 in /  34601.5 hPa NE 3.2 mph /  5.1 km/h 6.4 mph /  10.3 km/h 65 % 0.0 in /  0 mm
04:20 4.7 °F /  -15.2 °C -1.6 °F /  -18.7 °C 1021.9 in /  34601.5 hPa NNE 4.8 mph /  7.7 km/h 8.0 mph /  12.9 km/h 64 % 0.0 in /  0 mm
04:30 5.1 °F /  -14.9 °C -1.2 °F /  -18.4 °C 1021.9 in /  34601.5 hPa NNE 3.2 mph /  5.1 km/h 9.7 mph /  15.6 km/h 64 % 0.0 in /  0 mm
04:40 5.1 °F /  -14.9 °C -1.4 °F /  -18.6 °C 1021.9 in /  34601.5 hPa NE 4.8 mph /  7.7 km/h 9.7 mph /  15.6 km/h 63 % 0.0 in /  0 mm
10:48 5.5 °F /  -14.7 °C -1.2 °F /  -18.4 °C 1021.9 in /  34601.5 hPa NNW 5.6 mph /  9 km/h 5.6 mph /  9 km/h 62 % 0.0 in /  0 mm
10:49 5.6 °F /  -14.7 °C -1.1 °F /  -18.4 °C 1021.9 in /  34601.5 hPa ENE 5.6 mph /  9 km/h 5.6 mph /  9 km/h 62 % 0.0 in /  0 mm
10:55 5.6 °F /  -14.7 °C -1.1 °F /  -18.4 °C 1021.9 in /  34601.5 hPa NNE 10.0 mph /  16.1 km/h 10.0 mph /  16.1 km/h 62 % 0.0 in /  0 mm
11:07 6.2 °F /  -14.3 °C -0.6 °F /  -18.1 °C 1021.9 in /  34601.5 hPa ENE 4.2 mph /  6.8 km/h 4.2 mph /  6.8 km/h 62 % 0.0 in /  0 mm
11:20 6.2 °F /  -14.3 °C -0.8 °F /  -18.2 °C 1021.9 in /  34601.5 hPa North 7.4 mph /  11.9 km/h 7.4 mph /  11.9 km/h 61 % 0.0 in /  0 mm
11:26 6.4 °F /  -14.2 °C -0.6 °F /  -18.1 °C 1021.9 in /  34601.5 hPa NNE 5.6 mph /  9 km/h 5.6 mph /  9 km/h 61 % 0.0 in /  0 mm
11:31 6.6 °F /  -14.1 °C -0.6 °F /  -18.1 °C 1021.9 in /  34601.5 hPa NNE 5.6 mph /  9 km/h 5.6 mph /  9 km/h 60 % 0.0 in /  0 mm
11:54 7.1 °F /  -13.8 °C -0.2 °F /  -17.9 °C 1021.9 in /  34601.5 hPa ENE 3.9 mph /  6.3 km/h 3.9 mph /  6.3 km/h 60 % 0.0 in /  0 mm
12:02 7.0 °F /  -13.9 °C -0.5 °F /  -18.1 °C 1021.9 in /  34601.5 hPa NNE 5.6 mph /  9 km/h 5.6 mph /  9 km/h 59 % 0.0 in /  0 mm
12:11 7.3 °F /  -13.7 °C -0.2 °F /  -17.9 °C 1021.9 in /  34601.5 hPa ENE 5.0 mph /  8 km/h 5.0 mph /  8 km/h 59 % 0.0 in /  0 mm
12:18 7.1 °F /  -13.8 °C -0.6 °F /  -18.1 °C 1021.9 in /  34601.5 hPa ENE 5.6 mph /  9 km/h 5.6 mph /  9 km/h 58 % 0.0 in /  0 mm
12:24 7.3 °F /  -13.7 °C -0.4 °F /  -18 °C 1021.9 in /  34601.5 hPa NNE 7.4 mph /  11.9 km/h 7.4 mph /  11.9 km/h 58 % 0.0 in /  0 mm
12:31 7.5 °F /  -13.6 °C -0.2 °F /  -17.9 °C 1021.9 in /  34601.5 hPa North 4.7 mph /  7.6 km/h 4.7 mph /  7.6 km/h 58 % 0.0 in /  0 mm
12:40 8.0 °F /  -13.3 °C 0.2 °F /  -17.7 °C 1021.9 in /  34601.5 hPa NW 2.6 mph /  4.2 km/h 2.6 mph /  4.2 km/h 58 % 0.0 in /  0 mm
12:46 8.2 °F /  -13.2 °C 0.2 °F /  -17.7 °C 1021.9 in /  34601.5 hPa ENE 3.7 mph /  6 km/h 3.7 mph /  6 km/h 57 % 0.0 in /  0 mm
13:04 8.8 °F /  -12.9 °C 0.7 °F /  -17.4 °C 1021.9 in /  34601.5 hPa NNE 5.6 mph /  9 km/h 5.6 mph /  9 km/h 57 % 0.0 in /  0 mm
13:11 8.8 °F /  -12.9 °C 0.7 °F /  -17.4 °C 1021.9 in /  34601.5 hPa West 5.6 mph /  9 km/h 5.6 mph /  9 km/h 57 % 0.0 in /  0 mm
13:17 9.1 °F /  -12.7 °C 1.0 °F /  -17.2 °C 1021.9 in /  34601.5 hPa NE 5.6 mph /  9 km/h 5.6 mph /  9 km/h 57 % 0.0 in /  0 mm
13:23 9.2 °F /  -12.7 °C 0.9 °F /  -17.3 °C 1021.9 in /  34601.5 hPa ENE 7.4 mph /  11.9 km/h 7.4 mph /  11.9 km/h 56 % 0.0 in /  0 mm
13:30 9.0 °F /  -12.8 °C 0.7 °F /  -17.4 °C 1021.9 in /  34601.5 hPa NNE 7.4 mph /  11.9 km/h 7.4 mph /  11.9 km/h 56 % 0.0 in /  0 mm
13:45 9.5 °F /  -12.5 °C 1.2 °F /  -17.1 °C 1021.9 in /  34601.5 hPa East 3.7 mph /  6 km/h 3.7 mph /  6 km/h 56 % 0.0 in /  0 mm
14:00 9.6 °F /  -12.4 °C 1.0 °F /  -17.2 °C 1020.9 in /  34567.7 hPa ENE 5.6 mph /  9 km/h 5.6 mph /  9 km/h 55 % 0.0 in /  0 mm
14:21 9.8 °F /  -12.3 °C 0.9 °F /  -17.3 °C 1020.9 in /  34567.7 hPa NNE 7.4 mph /  11.9 km/h 7.4 mph /  11.9 km/h 54 % 0.0 in /  0 mm
14:33 9.8 °F /  -12.3 °C 0.9 °F /  -17.3 °C 1020.9 in /  34567.7 hPa NNE 7.4 mph /  11.9 km/h 7.4 mph /  11.9 km/h 54 % 0.0 in /  0 mm
14:44 10.1 °F /  -12.2 °C 1.2 °F /  -17.1 °C 1020.9 in /  34567.7 hPa NE 5.6 mph /  9 km/h 5.6 mph /  9 km/h 54 % 0.0 in /  0 mm
14:50 10.1 °F /  -12.2 °C 0.9 °F /  -17.3 °C 1019.9 in /  34533.8 hPa NNE 5.6 mph /  9 km/h 5.6 mph /  9 km/h 53 % 0.0 in /  0 mm
14:57 10.1 °F /  -12.2 °C 0.9 °F /  -17.3 °C 1019.9 in /  34533.8 hPa NE 3.9 mph /  6.3 km/h 3.9 mph /  6.3 km/h 53 % 0.0 in /  0 mm
15:36 10.4 °F /  -12 °C 0.9 °F /  -17.3 °C 1020.9 in /  34567.7 hPa WNW 3.7 mph /  6 km/h 3.7 mph /  6 km/h 52 % 0.0 in /  0 mm
15:47 10.4 °F /  -12 °C 0.9 °F /  -17.3 °C 1020.9 in /  34567.7 hPa NE 3.7 mph /  6 km/h 3.7 mph /  6 km/h 52 % 0.0 in /  0 mm
15:54 10.4 °F /  -12 °C 0.7 °F /  -17.4 °C 1019.9 in /  34533.8 hPa NNE 1.9 mph /  3.1 km/h   51 % 0.0 in /  0 mm
16:10 10.5 °F /  -11.9 °C 1.1 °F /  -17.2 °C 1019.9 in /  34533.8 hPa NE 3.7 mph /  6 km/h 3.7 mph /  6 km/h 52 % 0.0 in /  0 mm
16:21 10.4 °F /  -12 °C 0.9 °F /  -17.3 °C 1020.9 in /  34567.7 hPa NW 1.9 mph /  3.1 km/h   52 % 0.0 in /  0 mm
16:27 10.5 °F /  -11.9 °C 1.1 °F /  -17.2 °C 1020.9 in /  34567.7 hPa WNW 1.9 mph /  3.1 km/h   52 % 0.0 in /  0 mm
16:36 10.4 °F /  -12 °C 0.7 °F /  -17.4 °C 1020.9 in /  34567.7 hPa Calm     51 % 0.0 in /  0 mm
16:43 10.5 °F /  -11.9 °C 1.1 °F /  -17.2 °C 1020.9 in /  34567.7 hPa WNW 1.9 mph /  3.1 km/h   52 % 0.0 in /  0 mm
17:16 10.0 °F /  -12.2 °C 0.3 °F /  -17.6 °C 1020.9 in /  34567.7 hPa Calm     51 % 0.0 in /  0 mm
17:26 9.6 °F /  -12.4 °C 0.2 °F /  -17.7 °C 1020.9 in /  34567.7 hPa NNE 1.9 mph /  3.1 km/h   52 % 0.0 in /  0 mm
17:50 8.9 °F /  -12.8 °C -0.4 °F /  -18 °C 1021.9 in /  34601.5 hPa WNW 1.9 mph /  3.1 km/h   52 % 0.0 in /  0 mm
18:01 8.6 °F /  -13 °C -0.7 °F /  -18.2 °C 1021.9 in /  34601.5 hPa NW 1.9 mph /  3.1 km/h   52 % 0.0 in /  0 mm
18:12 8.4 °F /  -13.1 °C -0.9 °F /  -18.3 °C 1021.9 in /  34601.5 hPa NNE 3.9 mph /  6.3 km/h 3.9 mph /  6.3 km/h 52 % 0.0 in /  0 mm
18:19 8.1 °F /  -13.3 °C -1.2 °F /  -18.4 °C 1021.9 in /  34601.5 hPa WNW 3.7 mph /  6 km/h 3.7 mph /  6 km/h 52 % 0.0 in /  0 mm
18:20 2.9 °F /  -16.2 °C -2.6 °F /  -19.2 °C 1022.9 in /  34635.4 hPa Calm     67 % 0.0 in /  0 mm
18:30 3.0 °F /  -16.1 °C -2.3 °F /  -19.1 °C 1022.9 in /  34635.4 hPa Calm   1.6 mph /  2.6 km/h 68 % 0.0 in /  0 mm
18:40 2.9 °F /  -16.2 °C -2.4 °F /  -19.1 °C 1021.9 in /  34601.5 hPa SW 1.6 mph /  2.6 km/h 1.6 mph /  2.6 km/h 68 % 0.0 in /  0 mm
18:49 7.5 °F /  -13.6 °C -1.5 °F /  -18.6 °C 1021.9 in /  34601.5 hPa Calm     53 % 0.0 in /  0 mm
18:50 2.9 °F /  -16.2 °C -2.4 °F /  -19.1 °C 1020.9 in /  34567.7 hPa Calm   1.6 mph /  2.6 km/h 68 % 0.0 in /  0 mm
19:00 2.8 °F /  -16.2 °C -2.3 °F /  -19.1 °C 1020.9 in /  34567.7 hPa Calm     69 % 0.0 in /  0 mm
19:02 7.3 °F /  -13.7 °C -1.4 °F /  -18.6 °C 1021.9 in /  34601.5 hPa NW 3.7 mph /  6 km/h   54 % 0.0 in /  0 mm
19:10 2.8 °F /  -16.2 °C -2.3 °F /  -19.1 °C 1021.9 in /  34601.5 hPa Calm   1.6 mph /  2.6 km/h 69 % 0.0 in /  0 mm
19:15 2.6 °F /  -16.3 °C -2.5 °F /  -19.2 °C 1021.9 in /  34601.5 hPa NW 1.6 mph /  2.6 km/h 3.2 mph /  5.1 km/h 69 % 0.0 in /  0 mm
19:25 2.5 °F /  -16.4 °C -2.6 °F /  -19.2 °C 1021.9 in /  34601.5 hPa Calm   1.6 mph /  2.6 km/h 69 % 0.0 in /  0 mm
19:33 6.8 °F /  -14 °C -1.6 °F /  -18.7 °C 1021.9 in /  34601.5 hPa ENE 2.6 mph /  4.2 km/h 2.6 mph /  4.2 km/h 55 % 0.0 in /  0 mm
19:35 2.2 °F /  -16.6 °C -2.9 °F /  -19.4 °C 1021.9 in /  34601.5 hPa Calm   1.6 mph /  2.6 km/h 69 % 0.0 in /  0 mm
19:55 2.1 °F /  -16.6 °C -3.0 °F /  -19.4 °C 1021.9 in /  34601.5 hPa NE 1.6 mph /  2.6 km/h 3.2 mph /  5.1 km/h 69 % 0.0 in /  0 mm
20:00 6.5 °F /  -14.2 °C -1.9 °F /  -18.8 °C 1021.9 in /  34601.5 hPa Calm     55 % 0.0 in /  0 mm
20:05 2.0 °F /  -16.7 °C -2.9 °F /  -19.4 °C 1021.9 in /  34601.5 hPa Calm   3.2 mph /  5.1 km/h 70 % 0.0 in /  0 mm
20:06 6.3 °F /  -14.3 °C -1.8 °F /  -18.8 °C 1021.9 in /  34601.5 hPa Calm     56 % 0.0 in /  0 mm
20:14 6.3 °F /  -14.3 °C -1.8 °F /  -18.8 °C 1021.9 in /  34601.5 hPa Calm     56 % 0.0 in /  0 mm
20:15 2.0 °F /  -16.7 °C -2.7 °F /  -19.3 °C 1021.9 in /  34601.5 hPa Calm   1.6 mph /  2.6 km/h 71 % 0.0 in /  0 mm
20:25 1.9 °F /  -16.7 °C -2.8 °F /  -19.3 °C 1021.9 in /  34601.5 hPa Calm   1.6 mph /  2.6 km/h 71 % 0.0 in /  0 mm
20:32 6.2 °F /  -14.3 °C -1.7 °F /  -18.7 °C 1021.9 in /  34601.5 hPa Calm     57 % 0.0 in /  0 mm
20:35 1.8 °F /  -16.8 °C -3.1 °F /  -19.5 °C 1020.9 in /  34567.7 hPa Calm     70 % 0.0 in /  0 mm
20:39 6.2 °F /  -14.3 °C -1.7 °F /  -18.7 °C 1022.9 in /  34635.4 hPa West 3.7 mph /  6 km/h 3.7 mph /  6 km/h 57 % 0.0 in /  0 mm
20:45 1.8 °F /  -16.8 °C -2.9 °F /  -19.4 °C 1020.9 in /  34567.7 hPa Calm   3.2 mph /  5.1 km/h 71 % 0.0 in /  0 mm
20:46 6.0 °F /  -14.4 °C -1.9 °F /  -18.8 °C 1022.9 in /  34635.4 hPa SW 4.2 mph /  6.8 km/h 4.2 mph /  6.8 km/h 57 % 0.0 in /  0 mm
20:55 1.7 °F /  -16.8 °C -3.0 °F /  -19.4 °C 1020.9 in /  34567.7 hPa Calm     71 % 0.0 in /  0 mm
20:58 5.5 °F /  -14.7 °C -2.1 °F /  -18.9 °C 1022.9 in /  34635.4 hPa Calm     58 % 0.0 in /  0 mm
20:59 5.5 °F /  -14.7 °C -2.1 °F /  -18.9 °C 1022.9 in /  34635.4 hPa Calm     58 % 0.0 in /  0 mm
21:09 5.3 °F /  -14.8 °C -2.3 °F /  -19.1 °C 1022.9 in /  34635.4 hPa WSW 4.2 mph /  6.8 km/h 4.2 mph /  6.8 km/h 58 % 0.0 in /  0 mm
21:15 1.7 °F /  -16.8 °C -3.0 °F /  -19.4 °C 1021.9 in /  34601.5 hPa WNW 3.2 mph /  5.1 km/h 3.2 mph /  5.1 km/h 71 % 0.0 in /  0 mm
21:24 5.2 °F /  -14.9 °C -1.9 °F /  -18.8 °C 1022.9 in /  34635.4 hPa Calm     60 % 0.0 in /  0 mm
21:25 1.6 °F /  -16.9 °C -3.3 °F /  -19.6 °C 1021.9 in /  34601.5 hPa Calm   3.2 mph /  5.1 km/h 70 % 0.0 in /  0 mm
21:35 1.7 °F /  -16.8 °C -3.2 °F /  -19.6 °C 1021.9 in /  34601.5 hPa WSW 1.6 mph /  2.6 km/h 4.8 mph /  7.7 km/h 70 % 0.0 in /  0 mm
21:44 5.0 °F /  -15 °C -1.9 °F /  -18.8 °C 1022.9 in /  34635.4 hPa NE 3.7 mph /  6 km/h 3.7 mph /  6 km/h 61 % 0.0 in /  0 mm
21:45 1.7 °F /  -16.8 °C -2.8 °F /  -19.3 °C 1021.9 in /  34601.5 hPa WSW 1.6 mph /  2.6 km/h 3.2 mph /  5.1 km/h 72 % 0.0 in /  0 mm
21:55 4.7 °F /  -15.2 °C -1.9 °F /  -18.8 °C 1022.9 in /  34635.4 hPa Calm     62 % 0.0 in /  0 mm
22:03 4.5 °F /  -15.3 °C -2.2 °F /  -19 °C 1022.9 in /  34635.4 hPa WSW 3.7 mph /  6 km/h 3.7 mph /  6 km/h 62 % 0.0 in /  0 mm
22:05 1.6 °F /  -16.9 °C -2.7 °F /  -19.3 °C 1021.9 in /  34601.5 hPa Calm     73 % 0.0 in /  0 mm
22:10 4.2 °F /  -15.4 °C -2.7 °F /  -19.3 °C 1022.9 in /  34635.4 hPa SW 5.6 mph /  9 km/h 5.6 mph /  9 km/h 61 % 0.0 in /  0 mm
22:15 1.6 °F /  -16.9 °C -2.7 °F /  -19.3 °C 1021.9 in /  34601.5 hPa WSW 1.6 mph /  2.6 km/h 1.6 mph /  2.6 km/h 73 % 0.0 in /  0 mm
22:25 1.5 °F /  -16.9 °C -2.8 °F /  -19.3 °C 1021.9 in /  34601.5 hPa Calm   3.2 mph /  5.1 km/h 73 % 0.0 in /  0 mm
22:29 3.9 °F /  -15.6 °C -2.5 °F /  -19.2 °C 1022.9 in /  34635.4 hPa SW 1.9 mph /  3.1 km/h   63 % 0.0 in /  0 mm
22:35 3.8 °F /  -15.7 °C -2.4 °F /  -19.1 °C 1022.9 in /  34635.4 hPa Calm     64 % 0.0 in /  0 mm
22:40 3.8 °F /  -15.7 °C -2.4 °F /  -19.1 °C 1022.9 in /  34635.4 hPa NNW 2.6 mph /  4.2 km/h 2.6 mph /  4.2 km/h 64 % 0.0 in /  0 mm
22:45 1.6 °F /  -16.9 °C -2.6 °F /  -19.2 °C 1021.9 in /  34601.5 hPa Calm   3.2 mph /  5.1 km/h 74 % 0.0 in /  0 mm
22:46 3.8 °F /  -15.7 °C -2.6 °F /  -19.2 °C 1022.9 in /  34635.4 hPa NW 1.9 mph /  3.1 km/h   63 % 0.0 in /  0 mm
23:05 1.4 °F /  -17 °C -2.7 °F /  -19.3 °C 1020.9 in /  34567.7 hPa NNW 1.6 mph /  2.6 km/h 3.2 mph /  5.1 km/h 74 % 0.0 in /  0 mm
23:15 1.2 °F /  -17.1 °C -3.1 °F /  -19.5 °C 1020.9 in /  34567.7 hPa NNW 1.6 mph /  2.6 km/h 1.6 mph /  2.6 km/h 73 % 0.0 in /  0 mm
23:19 3.5 °F /  -15.8 °C -2.4 °F /  -19.1 °C 1022.9 in /  34635.4 hPa Calm     65 % 0.0 in /  0 mm
23:25 1.2 °F /  -17.1 °C -2.9 °F /  -19.4 °C 1020.9 in /  34567.7 hPa Calm   1.6 mph /  2.6 km/h 74 % 0.0 in /  0 mm
23:35 1.0 °F /  -17.2 °C -3.1 °F /  -19.5 °C 1020.9 in /  34567.7 hPa Calm   1.6 mph /  2.6 km/h 74 % 0.0 in /  0 mm
23:45 1.1 °F /  -17.2 °C -3.0 °F /  -19.4 °C 1020.9 in /  34567.7 hPa Calm   1.6 mph /  2.6 km/h 74 % 0.0 in /  0 mm
23:47 3.1 °F /  -16.1 °C -2.7 °F /  -19.3 °C 1022.9 in /  34635.4 hPa SW 3.7 mph /  6 km/h 3.7 mph /  6 km/h 66 % 0.0 in /  0 mm
23:55 1.1 °F /  -17.2 °C -3.0 °F /  -19.4 °C 1020.9 in /  34567.7 hPa Calm     74 % 0.0 in /  0 mm
23:59 3.1 °F /  -16.1 °C -2.7 °F /  -19.3 °C 1022.9 in /  34635.4 hPa SW 3.9 mph /  6.3 km/h 3.9 mph /  6.3 km/h 66 % 0.0 in /  0 mm
Meteo Sesrovires
Elogis d' Weather Underground - 1.25 mb

Guio original per  Jim McMurry - jmcmurry@mwt.net Adaptat per a la plantilla per  Wim van der Kuil - Leuven-Template.eu

Trobareu la nostra informacio del temps tambe a:

Weather Underground

AWEKAS